Haysville, KS

6:21 AM CST on March 04, 2015 (GMT -0600)
MesoWest PECK KS US UPR | Change Station
CLOSE
Current Station
Personal Weather Station
Location: Haysville, KS
Elevation: 1307 ft
Nearby Weather Stations

Elev 1307 ft 37.53 °N, 97.36 °W | Updated 2 hours ago

Overcast
Overcast
19 °F
Feels Like 19 °F
N
Wind Variable Wind from North
Gusts 0.0 mph

Today
High -- | Low -- °F
--% Chance of Precip.
Yesterday
High -- | Low -- °F
Precip. -- in
6:56 AM 6:26 PM
Waxing Gibbous, 99% visible
Pressure 30.16 in
Visibility 10.0 miles
Clouds Few 700 ft
Scattered Clouds 5500 ft
Windchill 19 °F
Dew Point Not available.
Humidity Not available.
Rainfall -999.00 in
Snow Depth Not available.
UV 0 out of 12
Pollen .50 out of 12
Air Quality Not available.
Flu Activity Not available.
SPECI KIAB 041216Z AUTO 04017KT 10SM FEW007 SCT055 M07/M10 A3016 RMK AO2

More Conditions Fewer Conditions

Pressure 30.16 in
Visibility 10.0 miles
Clouds Few 700 ft
Scattered Clouds 5500 ft
Windchill 19 °F
Dew Point Not available.
Humidity Not available.
Rainfall -999.00 in
Snow Depth Not available.
UV 0 out of 12
Pollen .50 out of 12
Air Quality Not available.
Flu Activity Not available.
SPECI KIAB 041216Z AUTO 04017KT 10SM FEW007 SCT055 M07/M10 A3016 RMK AO2

More Conditions Fewer Conditions

10-Day Weather Forecast

Almanac

Astronomy

Mar. 04, 2015 Rise Set
Actual Time
Civil Twilight
Nautical Twilight
Astronomical Twilight
Moon
Length of Visible Light
Length of Day
Tomorrow will be .
, % of the Moon is Illuminated

Today's Extremes

State Highs State Lows

Community

WunderPhotos

Upload Photos

1,802,438 photos uploaded!

WunderBlogs® & News

Nearby

Air Quality

  Air Quality AQ Index Pollutant
Not available.

Snow Depth

Station Depth Elevation

Earthquake Activity

City Distance Mag. Time & Date
Minimum magnitude displayed is 2.5.

Coastal Water Temperatures

Place Temperature

Nearby Weather Stations

Winter Weather Advisory
Statement as of 3:01 AM CST on March 04, 2015

... Winter Weather Advisory remains in effect until 6 PM CST this
evening...

* timing... a band of light to moderate snow will affect the area
mainly this morning. The band of snow will then sink slowly
southward and exit the area by later this afternoon.

* Snow accumulations... will generally range from 1 to 2
inches... mainly for locations along and near a Hutchinson to
Newton... to Marion line. Snow accumulations are expected to be
slightly Lower North and south of this line.

* Main impact... the snow accumulation will cause some slick spots
on roadways.

Precautionary/preparedness actions...

A Winter Weather Advisory means that periods of winter weather
will cause travel difficulties. Be prepared for slippery roads
and limited visibilities. Use caution while driving.



Jakub